Lenktynių santrauka (Trasa: Barcelona | Sezonas: 19 | Lenktynės: 17 | Grupė: Elite)

Sezonas:  Lenktynės:

Pasirinkti kitą grupę:

Poz Progresas Padangos Šalis Žaidėjo vardas Lenktynių laikas Ratų skaičius Sustojimai Geriausias ratas Vidutinis greitis Geriausias sustojimo laikas
01. Be pasikeitimo ±0 Michelini   Toygun Senler1 1h28:09.776 65 2 1:19.518 209.14km/h 9.152s
02. Be pasikeitimo ±0 Michelini   Jari Aareskoski3 + 6.920 65 2 1:19.689 208.86km/h 9.013s
03. +1 +1 Michelini   Edvinas Pranculevicius + 28.256 65 1 1:20.395 208.02km/h 11.096s
04. +2 +2 Michelini   Vladimir Islentiev2 + 28.277 65 1 1:20.182 208.02km/h 21.183s
05. Be pasikeitimo ±0 Michelini   Zdenek Hladik + 1:03.156 65 1 1:20.805 206.67km/h 13.775s
06. +1 +1 Michelini   João Monteiro + 1:04.902 65 1 1:20.672 206.60km/h 14.565s
07. +5 +5 Michelini   Joan Centellas + 1:16.697 65 1 1:20.735 206.15km/h 14.775s
08. Be pasikeitimo ±0 Michelini   Jan Zaluski + 1:40.196 64 1 1:21.052 205.25km/h 16.296s
09. Be pasikeitimo ±0 Michelini   Nuno Vicente + 2:08.126 64 1 1:21.091 204.19km/h 15.570s
10. +4 +4 Michelini   Wagner Souza + 2:23.953 64 1 1:21.737 203.59km/h 16.520s
11. +10 +10 Dunnolop   Andrius Talandzevicius + 2:41.116 63 2 1:21.376 202.95km/h 15.472s
12. -2 -2 Michelini   Marek Marchewka + 3:08.588 63 2 1:21.050 201.94km/h 11.448s
13. +11 +11 Michelini   Vitor Novo + 3:25.190 63 1 1:22.053 201.33km/h 25.070s
14. +2 +2 Dunnolop   Daniele Ambroggi + 3:27.619 63 2 1:21.541 201.24km/h 14.595s
15. +11 +11 Badyear   Michael Monaco + 3:48.871 63 2 1:22.158 200.46km/h 22.955s
16. +14 +14 Pipirelli   Philipp Hartmann + 5:38.849 61 1 1:24.583 196.55km/h 16.632s
17. +8 +8 Dunnolop   Leandro Sereno2 + 6:05.632 61 1 1:24.269 195.61km/h 10.951s
18. +4 +4 Michelini   Denis Grahov + 6:38.718 60 1 1:24.347 194.48km/h 17.230s
19. -8 -8 Michelini   Tomasz Kaminski + 6:39.315 60 2 1:23.338 194.46km/h 15.142s
20. +11 +11 Pipirelli   Martynas Atkočius + 6:42.580 60 2 1:23.708 194.34km/h 15.139s
21. -2 -2 Dunnolop   Gabriel Toma + 6:53.561 60 4 1:23.909 193.97km/h 17.980s
22. +12 +12 Michelini   Martin Rosina + 7:08.420 60 1 1:26.023 193.47km/h 16.674s
23. Be pasikeitimo ±0 Michelini   Aleksej Sutkin + 7:14.072 60 1 1:24.666 193.28km/h 14.925s
24. -9 -9 Michelini   Renato Svaiter + 7:20.956 60 3 1:24.808 193.04km/h 19.362s
25. +3 +3 Pipirelli   Mikko Heikkinen + 7:21.185 60 1 1:24.951 193.04km/h 17.580s
26. -6 -6 Dunnolop   Oli Jais + 7:33.273 60 4 1:20.951 192.63km/h 12.810s
27. -10 -10 Michelini   Lucas Secundo Abreu + 9:12.867 59 4 1:22.984 189.35km/h 19.868s
28. -1 -1 Pipirelli   Craig Templeman + 9:21.804 58 2 1:25.501 189.06km/h 20.870s
29. +3 +3 Badyear   Lee Ifans + 10:29.540 58 2 1:26.216 186.89km/h 19.578s
30. +5 +5 Dunnolop   Kostas Farsalinos + 10:29.737 58 3 1:26.652 186.89km/h 19.934s
Neklasifikuoti
31. -28 -28 Michelini   Laila Britāle Techniniai gedimai 46 3 1:20.390    11.562s
32. -3 -3 Badyear   Toni Söyrinki Techniniai gedimai 32 1 1:25.298    19.592s
33. -15 -15 Michelini   Rimantas Sagatas Techniniai gedimai 31 1 1:24.193    14.674s
34. -1 -1 Dunnolop   Michalis Marolachakis Techniniai gedimai 28 1 1:25.997    18.622s
35. +1 +1 Michelini   Filipe Miguel Techniniai gedimai 18 1 1:25.291    20.186s
36. -23 -23 Michelini   Martynas Molneris Avarija starte 0 0 -    -